Albany, New York
Traffic Map
Current Weather Conditions
Albany, New York
Broken Clouds
Broken Clouds
27°
Feels Like: 28°
Wind Chill: 27° Ceiling: 22000
Heat Index: 28° Visibility: 10mi
Dew Point: 18° Wind: 10mph
Humidity: 58% Direction: 190° (S)
Pressure: 29.92in Gusts: 0mph
Raw Report DataKALB 181351Z 19009KT 10SM FEW040 SCT140 BKN220 BKN260 27/18 A2992 RMK AO2 SLP129 T02670178
Traffic Incident Summary
Active as of:
Severity:
Category:
InformationThere was an issue retrieving the traffic information for this location. Please try a different location or try again shortly.
Advertisements